sensor_id;sensor_type;location;lat;lon;timestamp;pressure;altitude;pressure_sealevel;temperature;humidity
35023;BME280;21214;44.912;8.204;2023-04-01T00:01:54;98722.88;;;10.17;100.00
35023;BME280;21214;44.912;8.204;2023-04-01T00:04:19;98719.53;;;10.15;100.00
35023;BME280;21214;44.912;8.204;2023-04-01T00:06:45;98703.44;;;10.18;100.00
35023;BME280;21214;44.912;8.204;2023-04-01T00:09:12;98703.94;;;10.22;100.00
35023;BME280;21214;44.912;8.204;2023-04-01T00:11:38;98704.09;;;10.20;100.00
35023;BME280;21214;44.912;8.204;2023-04-01T00:14:03;98695.13;;;10.13;100.00
35023;BME280;21214;44.912;8.204;2023-04-01T00:16:29;98684.66;;;10.21;100.00
35023;BME280;21214;44.912;8.204;2023-04-01T00:18:55;98678.06;;;10.17;100.00
35023;BME280;21214;44.912;8.204;2023-04-01T00:21:20;98685.25;;;10.15;100.00
35023;BME280;21214;44.912;8.204;2023-04-01T00:23:47;98681.06;;;10.31;100.00
35023;BME280;21214;44.912;8.204;2023-04-01T00:26:12;98682.22;;;10.36;100.00
35023;BME280;21214;44.912;8.204;2023-04-01T00:28:39;98680.75;;;10.50;100.00
35023;BME280;21214;44.912;8.204;2023-04-01T00:31:05;98676.44;;;10.49;100.00
35023;BME280;21214;44.912;8.204;2023-04-01T00:33:31;98695.91;;;10.40;100.00
35023;BME280;21214;44.912;8.204;2023-04-01T00:36:05;98692.09;;;10.34;100.00
35023;BME280;21214;44.912;8.204;2023-04-01T00:38:30;98686.81;;;10.34;100.00
35023;BME280;21214;44.912;8.204;2023-04-01T00:40:56;98678.44;;;10.31;100.00
35023;BME280;21214;44.912;8.204;2023-04-01T00:43:23;98677.22;;;10.25;100.00
35023;BME280;21214;44.912;8.204;2023-04-01T00:45:48;98674.72;;;10.15;100.00
35023;BME280;21214;44.912;8.204;2023-04-01T00:48:22;98685.91;;;10.09;100.00
35023;BME280;21214;44.912;8.204;2023-04-01T00:50:54;98682.06;;;9.96;100.00
35023;BME280;21214;44.912;8.204;2023-04-01T00:53:22;98686.47;;;9.79;100.00
35023;BME280;21214;44.912;8.204;2023-04-01T00:55:49;98678.59;;;9.87;100.00
35023;BME280;21214;44.912;8.204;2023-04-01T00:58:17;98672.00;;;9.91;100.00
35023;BME280;21214;44.912;8.204;2023-04-01T01:00:45;98665.47;;;9.95;100.00
35023;BME280;21214;44.912;8.204;2023-04-01T01:03:13;98663.81;;;9.94;100.00
35023;BME280;21214;44.912;8.204;2023-04-01T01:05:43;98671.03;;;9.92;100.00
35023;BME280;21214;44.912;8.204;2023-04-01T01:08:21;98665.41;;;9.87;100.00
35023;BME280;21214;44.912;8.204;2023-04-01T01:10:51;98656.53;;;9.96;100.00
35023;BME280;21214;44.912;8.204;2023-04-01T01:18:21;98667.47;;;9.67;100.00
35023;BME280;21214;44.912;8.204;2023-04-01T01:34:03;98648.19;;;9.59;100.00
35023;BME280;21214;44.912;8.204;2023-04-01T01:36:34;98641.94;;;9.60;100.00
35023;BME280;21214;44.912;8.204;2023-04-01T01:39:06;98636.00;;;9.58;100.00
35023;BME280;21214;44.912;8.204;2023-04-01T01:41:33;98643.22;;;9.56;100.00
35023;BME280;21214;44.912;8.204;2023-04-01T01:43:59;98641.56;;;9.55;100.00
35023;BME280;21214;44.912;8.204;2023-04-01T01:46:28;98639.56;;;9.40;100.00
35023;BME280;21214;44.912;8.204;2023-04-01T01:48:55;98640.19;;;9.42;100.00
35023;BME280;21214;44.912;8.204;2023-04-01T01:51:22;98624.25;;;9.36;100.00
35023;BME280;21214;44.912;8.204;2023-04-01T01:53:48;98619.06;;;9.26;100.00
35023;BME280;21214;44.912;8.204;2023-04-01T01:56:16;98610.81;;;9.21;100.00
35023;BME280;21214;44.912;8.204;2023-04-01T01:58:44;98602.94;;;9.21;100.00
35023;BME280;21214;44.912;8.204;2023-04-01T02:01:14;98601.28;;;9.20;100.00
35023;BME280;21214;44.912;8.204;2023-04-01T02:03:41;98603.88;;;9.12;100.00
35023;BME280;21214;44.912;8.204;2023-04-01T02:06:07;98612.75;;;9.11;100.00
35023;BME280;21214;44.912;8.204;2023-04-01T02:08:42;98609.44;;;9.09;100.00
35023;BME280;21214;44.912;8.204;2023-04-01T02:11:11;98619.94;;;9.01;100.00
35023;BME280;21214;44.912;8.204;2023-04-01T02:13:42;98600.06;;;8.81;100.00
35023;BME280;21214;44.912;8.204;2023-04-01T02:18:59;98615.31;;;8.51;100.00
35023;BME280;21214;44.912;8.204;2023-04-01T02:21:28;98620.34;;;8.45;100.00
35023;BME280;21214;44.912;8.204;2023-04-01T02:23:56;98616.97;;;8.52;100.00
35023;BME280;21214;44.912;8.204;2023-04-01T02:26:23;98627.78;;;8.49;100.00
35023;BME280;21214;44.912;8.204;2023-04-01T02:28:50;98631.81;;;8.26;100.00
35023;BME280;21214;44.912;8.204;2023-04-01T02:31:17;98637.47;;;8.31;100.00
35023;BME280;21214;44.912;8.204;2023-04-01T02:33:43;98635.66;;;8.32;100.00
35023;BME280;21214;44.912;8.204;2023-04-01T02:36:12;98637.28;;;8.42;100.00
35023;BME280;21214;44.912;8.204;2023-04-01T02:38:38;98649.13;;;8.46;100.00
35023;BME280;21214;44.912;8.204;2023-04-01T02:41:03;98642.44;;;8.52;100.00
35023;BME280;21214;44.912;8.204;2023-04-01T02:43:30;98641.59;;;8.51;100.00
35023;BME280;21214;44.912;8.204;2023-04-01T02:45:56;98637.28;;;8.42;100.00
35023;BME280;21214;44.912;8.204;2023-04-01T02:48:22;98643.13;;;8.36;100.00
35023;BME280;21214;44.912;8.204;2023-04-01T02:50:48;98642.31;;;8.26;100.00
35023;BME280;21214;44.912;8.204;2023-04-01T02:53:13;98637.47;;;8.31;100.00
35023;BME280;21214;44.912;8.204;2023-04-01T02:55:39;98641.47;;;8.35;100.00
35023;BME280;21214;44.912;8.204;2023-04-01T02:58:05;98651.00;;;8.36;100.00
35023;BME280;21214;44.912;8.204;2023-04-01T03:00:31;98651.97;;;8.35;100.00
35023;BME280;21214;44.912;8.204;2023-04-01T03:02:56;98659.09;;;8.43;100.00
35023;BME280;21214;44.912;8.204;2023-04-01T03:05:21;98662.28;;;8.46;100.00
35023;BME280;21214;44.912;8.204;2023-04-01T03:07:47;98667.38;;;8.48;100.00
35023;BME280;21214;44.912;8.204;2023-04-01T03:10:12;98675.69;;;8.43;100.00
35023;BME280;21214;44.912;8.204;2023-04-01T03:12:38;98665.72;;;8.47;100.00
35023;BME280;21214;44.912;8.204;2023-04-01T03:15:03;98664.94;;;8.54;100.00
35023;BME280;21214;44.912;8.204;2023-04-01T03:17:29;98663.97;;;8.55;100.00
35023;BME280;21214;44.912;8.204;2023-04-01T03:19:54;98663.59;;;8.50;100.00
35023;BME280;21214;44.912;8.204;2023-04-01T03:22:19;98667.59;;;8.54;100.00
35023;BME280;21214;44.912;8.204;2023-04-01T03:24:49;98678.09;;;8.54;100.00
35023;BME280;21214;44.912;8.204;2023-04-01T03:27:15;98672.66;;;8.48;100.00
35023;BME280;21214;44.912;8.204;2023-04-01T03:29:41;98668.19;;;8.48;100.00
35023;BME280;21214;44.912;8.204;2023-04-01T03:32:07;98670.44;;;8.43;100.00
35023;BME280;21214;44.912;8.204;2023-04-01T03:34:32;98679.38;;;8.33;100.00
35023;BME280;21214;44.912;8.204;2023-04-01T03:36:58;98678.59;;;8.22;100.00
35023;BME280;21214;44.912;8.204;2023-04-01T03:39:23;98688.88;;;8.16;100.00
35023;BME280;21214;44.912;8.204;2023-04-01T03:41:49;98688.56;;;8.19;100.00
35023;BME280;21214;44.912;8.204;2023-04-01T03:44:14;98693.22;;;8.25;100.00
35023;BME280;21214;44.912;8.204;2023-04-01T03:46:40;98711.19;;;8.12;100.00
35023;BME280;21214;44.912;8.204;2023-04-01T03:49:06;98711.09;;;8.04;100.00
35023;BME280;21214;44.912;8.204;2023-04-01T03:51:37;98707.59;;;7.86;100.00
35023;BME280;21214;44.912;8.204;2023-04-01T03:54:03;98699.22;;;7.72;100.00
35023;BME280;21214;44.912;8.204;2023-04-01T03:56:28;98692.91;;;7.65;100.00
35023;BME280;21214;44.912;8.204;2023-04-01T03:58:54;98702.16;;;7.69;100.00
35023;BME280;21214;44.912;8.204;2023-04-01T04:01:20;98692.03;;;7.74;100.00
35023;BME280;21214;44.912;8.204;2023-04-01T04:03:48;98702.78;;;7.81;100.00
35023;BME280;21214;44.912;8.204;2023-04-01T04:06:14;98700.66;;;7.85;100.00
35023;BME280;21214;44.912;8.204;2023-04-01T04:08:40;98703.50;;;7.73;100.00
35023;BME280;21214;44.912;8.204;2023-04-01T04:11:06;98710.88;;;7.60;100.00
35023;BME280;21214;44.912;8.204;2023-04-01T04:13:35;98709.84;;;7.44;100.00
35023;BME280;21214;44.912;8.204;2023-04-01T04:16:01;98706.28;;;7.35;100.00
35023;BME280;21214;44.912;8.204;2023-04-01T04:18:27;98714.16;;;7.35;100.00
35023;BME280;21214;44.912;8.204;2023-04-01T04:20:53;98715.81;;;7.36;100.00
35023;BME280;21214;44.912;8.204;2023-04-01T04:23:19;98711.34;;;7.46;100.00
35023;BME280;21214;44.912;8.204;2023-04-01T04:25:54;98714.66;;;7.48;100.00
35023;BME280;21214;44.912;8.204;2023-04-01T04:28:20;98712.44;;;7.53;100.00
35023;BME280;21214;44.912;8.204;2023-04-01T04:30:46;98725.31;;;7.47;100.00
35023;BME280;21214;44.912;8.204;2023-04-01T04:33:11;98726.78;;;7.59;100.00
35023;BME280;21214;44.912;8.204;2023-04-01T04:35:36;98738.41;;;7.56;100.00
35023;BME280;21214;44.912;8.204;2023-04-01T04:38:02;98729.81;;;7.64;100.00
35023;BME280;21214;44.912;8.204;2023-04-01T04:40:27;98721.53;;;7.59;100.00
35023;BME280;21214;44.912;8.204;2023-04-01T04:42:53;98714.56;;;7.67;100.00
35023;BME280;21214;44.912;8.204;2023-04-01T04:45:18;98718.97;;;7.76;100.00
35023;BME280;21214;44.912;8.204;2023-04-01T04:47:52;98717.00;;;7.78;100.00
35023;BME280;21214;44.912;8.204;2023-04-01T04:50:17;98709.53;;;7.83;100.00
35023;BME280;21214;44.912;8.204;2023-04-01T04:52:43;98714.06;;;7.91;100.00
35023;BME280;21214;44.912;8.204;2023-04-01T04:55:08;98718.03;;;7.95;100.00
35023;BME280;21214;44.912;8.204;2023-04-01T04:57:33;98726.16;;;8.02;100.00
35023;BME280;21214;44.912;8.204;2023-04-01T04:59:59;98733.22;;;8.01;100.00
35023;BME280;21214;44.912;8.204;2023-04-01T05:02:47;98732.63;;;8.07;100.00
35023;BME280;21214;44.912;8.204;2023-04-01T05:05:15;98726.56;;;8.07;100.00
35023;BME280;21214;44.912;8.204;2023-04-01T05:07:41;98723.53;;;8.02;100.00
35023;BME280;21214;44.912;8.204;2023-04-01T05:10:06;98724.91;;;8.06;100.00
35023;BME280;21214;44.912;8.204;2023-04-01T05:12:32;98717.88;;;7.97;100.00
35023;BME280;21214;44.912;8.204;2023-04-01T05:15:02;98730.44;;;8.03;100.00
35023;BME280;21214;44.912;8.204;2023-04-01T05:17:28;98734.28;;;8.08;100.00
35023;BME280;21214;44.912;8.204;2023-04-01T05:19:54;98732.34;;;8.10;100.00
35023;BME280;21214;44.912;8.204;2023-04-01T05:22:19;98750.56;;;7.85;100.00
35023;BME280;21214;44.912;8.204;2023-04-01T05:24:45;98745.25;;;7.67;100.00
35023;BME280;21214;44.912;8.204;2023-04-01T05:27:11;98739.34;;;7.55;100.00
35023;BME280;21214;44.912;8.204;2023-04-01T05:29:38;98738.44;;;7.37;100.00
35023;BME280;21214;44.912;8.204;2023-04-01T05:32:06;98735.00;;;7.36;100.00
35023;BME280;21214;44.912;8.204;2023-04-01T05:34:33;98737.63;;;7.36;100.00
35023;BME280;21214;44.912;8.204;2023-04-01T05:36:58;98727.94;;;7.37;100.00
35023;BME280;21214;44.912;8.204;2023-04-01T05:39:23;98735.94;;;7.45;100.00
35023;BME280;21214;44.912;8.204;2023-04-01T05:41:49;98733.75;;;7.40;100.00
35023;BME280;21214;44.912;8.204;2023-04-01T05:44:14;98737.59;;;7.46;100.00
35023;BME280;21214;44.912;8.204;2023-04-01T05:46:40;98734.41;;;7.52;100.00
35023;BME280;21214;44.912;8.204;2023-04-01T05:49:23;98748.56;;;7.69;100.00
35023;BME280;21214;44.912;8.204;2023-04-01T05:51:49;98746.59;;;7.80;100.00
35023;BME280;21214;44.912;8.204;2023-04-01T05:54:16;98748.34;;;7.90;100.00
35023;BME280;21214;44.912;8.204;2023-04-01T05:56:43;98742.63;;;8.04;100.00
35023;BME280;21214;44.912;8.204;2023-04-01T05:59:09;98746.19;;;8.12;100.00
35023;BME280;21214;44.912;8.204;2023-04-01T06:01:35;98755.56;;;8.15;100.00
35023;BME280;21214;44.912;8.204;2023-04-01T06:04:00;98754.97;;;8.21;100.00
35023;BME280;21214;44.912;8.204;2023-04-01T06:06:27;98744.44;;;8.21;100.00
35023;BME280;21214;44.912;8.204;2023-04-01T06:08:58;98739.00;;;8.32;100.00
35023;BME280;21214;44.912;8.204;2023-04-01T06:14:16;98750.44;;;8.41;100.00
35023;BME280;21214;44.912;8.204;2023-04-01T06:30:02;98771.88;;;8.99;100.00
35023;BME280;21214;44.912;8.204;2023-04-01T06:40:43;98754.19;;;9.53;96.71
35023;BME280;21214;44.912;8.204;2023-04-01T06:43:23;98754.25;;;9.69;94.86
35023;BME280;21214;44.912;8.204;2023-04-01T06:49:48;98758.69;;;9.94;92.18
35023;BME280;21214;44.912;8.204;2023-04-01T06:55:41;98768.38;;;10.27;87.02
35023;BME280;21214;44.912;8.204;2023-04-01T06:58:29;98766.97;;;10.41;87.93
35023;BME280;21214;44.912;8.204;2023-04-01T07:00:59;98772.25;;;10.57;87.52
35023;BME280;21214;44.912;8.204;2023-04-01T07:03:29;98779.22;;;10.75;87.33
35023;BME280;21214;44.912;8.204;2023-04-01T07:05:56;98773.13;;;10.90;87.23
35023;BME280;21214;44.912;8.204;2023-04-01T07:08:25;98771.50;;;11.05;87.70
35023;BME280;21214;44.912;8.204;2023-04-01T07:10:55;98772.50;;;11.13;86.69
35023;BME280;21214;44.912;8.204;2023-04-01T07:13:43;98775.63;;;11.24;86.47
35023;BME280;21214;44.912;8.204;2023-04-01T07:16:24;98771.81;;;11.35;85.43
35023;BME280;21214;44.912;8.204;2023-04-01T07:21:32;98769.47;;;11.56;85.16
35023;BME280;21214;44.912;8.204;2023-04-01T07:24:04;98767.13;;;11.69;85.22
35023;BME280;21214;44.912;8.204;2023-04-01T07:26:41;98767.16;;;11.77;84.46
35023;BME280;21214;44.912;8.204;2023-04-01T07:29:12;98758.56;;;11.83;82.18
35023;BME280;21214;44.912;8.204;2023-04-01T07:34:50;98766.41;;;12.00;79.57
35023;BME280;21214;44.912;8.204;2023-04-01T07:40:11;98775.91;;;12.25;77.36
35023;BME280;21214;44.912;8.204;2023-04-01T07:45:35;98785.38;;;12.50;77.69
35023;BME280;21214;44.912;8.204;2023-04-01T07:48:09;98765.94;;;12.66;76.71
35023;BME280;21214;44.912;8.204;2023-04-01T07:50:41;98780.88;;;12.82;73.31
35023;BME280;21214;44.912;8.204;2023-04-01T07:53:25;98779.94;;;12.97;72.62
35023;BME280;21214;44.912;8.204;2023-04-01T07:56:17;98777.03;;;13.15;67.46
35023;BME280;21214;44.912;8.204;2023-04-01T08:06:39;98778.44;;;13.78;62.66
35023;BME280;21214;44.912;8.204;2023-04-01T08:09:22;98781.25;;;13.91;61.43
35023;BME280;21214;44.912;8.204;2023-04-01T08:18:17;98788.13;;;14.29;57.83
35023;BME280;21214;44.912;8.204;2023-04-01T08:21:04;98782.38;;;14.41;57.24
35023;BME280;21214;44.912;8.204;2023-04-01T08:23:33;98775.56;;;14.53;56.26
35023;BME280;21214;44.912;8.204;2023-04-01T08:28:34;98788.72;;;14.61;53.12
35023;BME280;21214;44.912;8.204;2023-04-01T08:31:47;98772.69;;;14.69;53.70
35023;BME280;21214;44.912;8.204;2023-04-01T08:33:53;98774.59;;;14.75;52.60
35023;BME280;21214;44.912;8.204;2023-04-01T08:36:29;98774.59;;;14.75;51.71
35023;BME280;21214;44.912;8.204;2023-04-01T08:44:36;98769.91;;;14.98;51.54
35023;BME280;21214;44.912;8.204;2023-04-01T08:54:47;98762.81;;;15.27;50.29
35023;BME280;21214;44.912;8.204;2023-04-01T09:00:43;98766.47;;;15.47;51.54
35023;BME280;21214;44.912;8.204;2023-04-01T09:03:38;98764.31;;;15.57;51.58
35023;BME280;21214;44.912;8.204;2023-04-01T09:09:36;98769.72;;;15.70;49.42
35023;BME280;21214;44.912;8.204;2023-04-01T09:27:18;98764.25;;;16.13;44.61
35023;BME280;21214;44.912;8.204;2023-04-01T09:40:42;98757.81;;;16.35;42.52
35023;BME280;21214;44.912;8.204;2023-04-01T09:58:51;98748.94;;;16.75;39.73
35023;BME280;21214;44.912;8.204;2023-04-01T10:12:24;98730.91;;;16.91;37.92
35023;BME280;21214;44.912;8.204;2023-04-01T10:28:25;98711.03;;;17.39;34.52
35023;BME280;21214;44.912;8.204;2023-04-01T11:08:01;98682.06;;;17.76;33.52
35023;BME280;21214;44.912;8.204;2023-04-01T11:26:22;98659.09;;;18.26;31.39
35023;BME280;21214;44.912;8.204;2023-04-01T11:34:44;98649.59;;;18.68;30.82
35023;BME280;21214;44.912;8.204;2023-04-01T11:37:20;98651.41;;;18.74;29.50
35023;BME280;21214;44.912;8.204;2023-04-01T11:46:08;98634.75;;;19.21;22.88
35023;BME280;21214;44.912;8.204;2023-04-01T11:51:21;98630.00;;;19.48;21.46
35023;BME280;21214;44.912;8.204;2023-04-01T12:01:29;98605.22;;;19.89;22.80
35023;BME280;21214;44.912;8.204;2023-04-01T12:14:14;98599.19;;;20.24;21.26
35023;BME280;21214;44.912;8.204;2023-04-01T12:16:45;98586.41;;;20.26;21.25
35023;BME280;21214;44.912;8.204;2023-04-01T12:19:15;98583.09;;;20.42;21.26
35023;BME280;21214;44.912;8.204;2023-04-01T12:31:56;98567.53;;;20.85;21.83
35023;BME280;21214;44.912;8.204;2023-04-01T12:47:55;98546.75;;;21.39;19.86
35023;BME280;21214;44.912;8.204;2023-04-01T12:53:23;98545.75;;;21.69;20.05
35023;BME280;21214;44.912;8.204;2023-04-01T12:55:53;98544.25;;;21.73;20.01
35023;BME280;21214;44.912;8.204;2023-04-01T13:09:24;98530.47;;;21.97;19.46
35023;BME280;21214;44.912;8.204;2023-04-01T13:30:17;98511.44;;;22.61;18.47
35023;BME280;21214;44.912;8.204;2023-04-01T13:33:12;98510.63;;;22.77;18.19
35023;BME280;21214;44.912;8.204;2023-04-01T13:43:14;98511.00;;;23.02;18.24
35023;BME280;21214;44.912;8.204;2023-04-01T13:56:14;98491.09;;;21.75;19.46
35023;BME280;21214;44.912;8.204;2023-04-01T14:01:29;98490.69;;;21.14;20.08
35023;BME280;21214;44.912;8.204;2023-04-01T14:27:55;98446.25;;;24.38;16.18
35023;BME280;21214;44.912;8.204;2023-04-01T14:35:34;98448.22;;;23.18;17.45
35023;BME280;21214;44.912;8.204;2023-04-01T14:38:04;98439.25;;;22.53;18.24
35023;BME280;21214;44.912;8.204;2023-04-01T14:43:13;98445.63;;;21.96;18.35
35023;BME280;21214;44.912;8.204;2023-04-01T14:48:30;98428.19;;;21.99;18.63
35023;BME280;21214;44.912;8.204;2023-04-01T14:51:42;98433.69;;;21.92;18.43
35023;BME280;21214;44.912;8.204;2023-04-01T14:53:43;98429.91;;;21.77;18.53
35023;BME280;21214;44.912;8.204;2023-04-01T14:56:16;98426.66;;;21.75;18.38
35023;BME280;21214;44.912;8.204;2023-04-01T14:58:59;98426.19;;;21.78;18.41
35023;BME280;21214;44.912;8.204;2023-04-01T15:01:40;98418.03;;;21.73;18.47
35023;BME280;21214;44.912;8.204;2023-04-01T15:04:33;98421.09;;;21.64;18.46
35023;BME280;21214;44.912;8.204;2023-04-01T15:12:48;98418.97;;;21.50;19.36
35023;BME280;21214;44.912;8.204;2023-04-01T15:20:28;98405.13;;;21.41;19.16
35023;BME280;21214;44.912;8.204;2023-04-01T15:25:36;98412.13;;;21.42;19.54
35023;BME280;21214;44.912;8.204;2023-04-01T15:30:49;98403.84;;;21.44;19.62
35023;BME280;21214;44.912;8.204;2023-04-01T15:35:46;98397.78;;;21.37;18.94
35023;BME280;21214;44.912;8.204;2023-04-01T15:43:18;98397.25;;;21.23;19.08
35023;BME280;21214;44.912;8.204;2023-04-01T15:55:59;98394.84;;;20.98;18.70
35023;BME280;21214;44.912;8.204;2023-04-01T16:19:12;98368.16;;;20.92;19.31
35023;BME280;21214;44.912;8.204;2023-04-01T16:26:37;98363.09;;;20.78;19.54
35023;BME280;21214;44.912;8.204;2023-04-01T16:29:12;98365.19;;;20.76;19.27
35023;BME280;21214;44.912;8.204;2023-04-01T16:34:30;98367.75;;;20.71;19.28
35023;BME280;21214;44.912;8.204;2023-04-01T16:37:00;98368.00;;;20.70;19.17
35023;BME280;21214;44.912;8.204;2023-04-01T16:39:43;98366.94;;;20.71;19.21
35023;BME280;21214;44.912;8.204;2023-04-01T16:42:31;98366.72;;;20.72;19.26
35023;BME280;21214;44.912;8.204;2023-04-01T16:47:38;98362.84;;;20.68;18.93
35023;BME280;21214;44.912;8.204;2023-04-01T16:50:07;98367.56;;;20.61;18.57
35023;BME280;21214;44.912;8.204;2023-04-01T16:55:17;98359.19;;;20.46;18.71
35023;BME280;21214;44.912;8.204;2023-04-01T16:57:48;98359.66;;;20.43;19.05
35023;BME280;21214;44.912;8.204;2023-04-01T17:02:49;98364.63;;;20.28;19.00
35023;BME280;21214;44.912;8.204;2023-04-01T17:05:15;98362.88;;;20.22;18.59
35023;BME280;21214;44.912;8.204;2023-04-01T17:15:51;98364.28;;;20.01;19.93
35023;BME280;21214;44.912;8.204;2023-04-01T17:20:50;98356.47;;;19.88;20.37
35023;BME280;21214;44.912;8.204;2023-04-01T17:23:23;98360.28;;;19.80;20.64
35023;BME280;21214;44.912;8.204;2023-04-01T17:25:55;98363.31;;;19.72;20.68
35023;BME280;21214;44.912;8.204;2023-04-01T17:41:34;98364.44;;;19.23;21.55
35023;BME280;21214;44.912;8.204;2023-04-01T17:54:58;98372.44;;;18.75;22.81
35023;BME280;21214;44.912;8.204;2023-04-01T17:57:27;98381.94;;;18.71;23.08
35023;BME280;21214;44.912;8.204;2023-04-01T18:10:21;98389.75;;;18.29;22.95
35023;BME280;21214;44.912;8.204;2023-04-01T18:20:58;98392.16;;;18.13;22.84
35023;BME280;21214;44.912;8.204;2023-04-01T18:23:46;98401.88;;;18.07;22.80
35023;BME280;21214;44.912;8.204;2023-04-01T18:26:13;98396.97;;;18.04;22.76
35023;BME280;21214;44.912;8.204;2023-04-01T18:29:24;98402.13;;;17.99;22.63
35023;BME280;21214;44.912;8.204;2023-04-01T18:31:43;98398.94;;;17.90;22.60
35023;BME280;21214;44.912;8.204;2023-04-01T18:36:55;98404.09;;;17.85;23.15
35023;BME280;21214;44.912;8.204;2023-04-01T18:39:41;98403.72;;;17.82;23.62
35023;BME280;21214;44.912;8.204;2023-04-01T18:42:10;98407.25;;;17.76;23.49
35023;BME280;21214;44.912;8.204;2023-04-01T18:44:48;98407.09;;;17.71;23.79
35023;BME280;21214;44.912;8.204;2023-04-01T18:47:25;98413.88;;;17.67;23.89
35023;BME280;21214;44.912;8.204;2023-04-01T18:49:58;98406.75;;;17.61;23.19
35023;BME280;21214;44.912;8.204;2023-04-01T18:52:27;98411.66;;;17.57;23.17
35023;BME280;21214;44.912;8.204;2023-04-01T18:57:25;98421.94;;;17.53;23.12
35023;BME280;21214;44.912;8.204;2023-04-01T18:59:56;98429.94;;;17.53;23.05
35023;BME280;21214;44.912;8.204;2023-04-01T19:02:30;98433.25;;;17.49;23.08
35023;BME280;21214;44.912;8.204;2023-04-01T19:10:13;98442.56;;;17.33;23.86
35023;BME280;21214;44.912;8.204;2023-04-01T19:25:54;98469.59;;;16.86;28.68
35023;BME280;21214;44.912;8.204;2023-04-01T19:30:51;98467.75;;;16.79;28.88
35023;BME280;21214;44.912;8.204;2023-04-01T19:38:37;98457.97;;;16.67;28.19
35023;BME280;21214;44.912;8.204;2023-04-01T19:41:10;98450.19;;;16.65;27.81
35023;BME280;21214;44.912;8.204;2023-04-01T19:49:12;98453.03;;;16.51;27.26
35023;BME280;21214;44.912;8.204;2023-04-01T19:54:16;98457.97;;;16.47;28.04
35023;BME280;21214;44.912;8.204;2023-04-01T20:04:03;98469.44;;;16.34;29.40
35023;BME280;21214;44.912;8.204;2023-04-01T20:06:34;98474.38;;;16.31;29.78
35023;BME280;21214;44.912;8.204;2023-04-01T20:14:13;98469.84;;;16.12;29.42
35023;BME280;21214;44.912;8.204;2023-04-01T20:19:28;98484.38;;;16.16;29.70
35023;BME280;21214;44.912;8.204;2023-04-01T20:21:56;98483.97;;;16.06;29.35
35023;BME280;21214;44.912;8.204;2023-04-01T20:24:23;98492.78;;;16.00;29.52
35023;BME280;21214;44.912;8.204;2023-04-01T20:27:07;98489.06;;;15.87;29.76
35023;BME280;21214;44.912;8.204;2023-04-01T20:34:58;98494.78;;;15.71;30.10
35023;BME280;21214;44.912;8.204;2023-04-01T20:50:34;98508.03;;;15.17;31.01
35023;BME280;21214;44.912;8.204;2023-04-01T20:53:04;98508.81;;;15.11;31.08
35023;BME280;21214;44.912;8.204;2023-04-01T21:05:51;98521.50;;;15.15;32.10
35023;BME280;21214;44.912;8.204;2023-04-01T21:08:21;98521.84;;;14.99;35.13
35023;BME280;21214;44.912;8.204;2023-04-01T21:11:03;98515.22;;;14.82;37.34
35023;BME280;21214;44.912;8.204;2023-04-01T21:13:37;98526.91;;;14.60;37.31
35023;BME280;21214;44.912;8.204;2023-04-01T21:16:15;98530.47;;;14.46;38.31
35023;BME280;21214;44.912;8.204;2023-04-01T21:18:47;98525.56;;;14.43;38.33
35023;BME280;21214;44.912;8.204;2023-04-01T21:21:20;98533.38;;;14.29;38.30
35023;BME280;21214;44.912;8.204;2023-04-01T21:32:14;98528.06;;;14.08;39.01
35023;BME280;21214;44.912;8.204;2023-04-01T21:55:47;98541.06;;;13.46;41.01
35023;BME280;21214;44.912;8.204;2023-04-01T21:58:24;98542.88;;;13.45;41.33
35023;BME280;21214;44.912;8.204;2023-04-01T22:06:19;98542.19;;;13.37;41.92
35023;BME280;21214;44.912;8.204;2023-04-01T22:08:51;98542.72;;;13.32;42.09
35023;BME280;21214;44.912;8.204;2023-04-01T22:14:02;98547.25;;;13.09;43.20
35023;BME280;21214;44.912;8.204;2023-04-01T22:16:40;98539.69;;;13.06;43.69
35023;BME280;21214;44.912;8.204;2023-04-01T22:32:05;98549.06;;;12.64;47.01
35023;BME280;21214;44.912;8.204;2023-04-01T22:45:01;98534.97;;;12.49;48.25
35023;BME280;21214;44.912;8.204;2023-04-01T22:47:44;98529.69;;;12.49;48.35
35023;BME280;21214;44.912;8.204;2023-04-01T22:50:17;98536.50;;;12.44;49.20
35023;BME280;21214;44.912;8.204;2023-04-01T22:52:46;98534.41;;;12.39;49.50
35023;BME280;21214;44.912;8.204;2023-04-01T22:55:17;98538.97;;;12.30;49.60
35023;BME280;21214;44.912;8.204;2023-04-01T22:58:03;98547.00;;;12.14;49.99
35023;BME280;21214;44.912;8.204;2023-04-01T23:00:52;98549.50;;;12.16;49.68
35023;BME280;21214;44.912;8.204;2023-04-01T23:03:21;98542.63;;;12.07;50.20
35023;BME280;21214;44.912;8.204;2023-04-01T23:05:49;98543.75;;;12.12;50.12
35023;BME280;21214;44.912;8.204;2023-04-01T23:10:58;98561.13;;;12.07;50.90
35023;BME280;21214;44.912;8.204;2023-04-01T23:13:29;98564.13;;;12.04;51.17
35023;BME280;21214;44.912;8.204;2023-04-01T23:15:57;98559.81;;;12.03;51.27
35023;BME280;21214;44.912;8.204;2023-04-01T23:28:32;98570.28;;;11.65;54.29
35023;BME280;21214;44.912;8.204;2023-04-01T23:31:01;98564.00;;;11.66;54.55
35023;BME280;21214;44.912;8.204;2023-04-01T23:33:30;98570.63;;;11.62;55.18
35023;BME280;21214;44.912;8.204;2023-04-01T23:36:00;98566.00;;;11.64;55.32
35023;BME280;21214;44.912;8.204;2023-04-01T23:38:35;98571.59;;;11.61;55.81
35023;BME280;21214;44.912;8.204;2023-04-01T23:41:02;98566.31;;;11.61;55.63
35023;BME280;21214;44.912;8.204;2023-04-01T23:43:29;98565.38;;;11.54;56.07
35023;BME280;21214;44.912;8.204;2023-04-01T23:46:00;98563.38;;;11.56;56.12
35023;BME280;21214;44.912;8.204;2023-04-01T23:48:38;98564.75;;;11.44;57.46
35023;BME280;21214;44.912;8.204;2023-04-01T23:51:10;98570.22;;;11.42;57.69
35023;BME280;21214;44.912;8.204;2023-04-01T23:53:41;98571.91;;;11.35;58.49
35023;BME280;21214;44.912;8.204;2023-04-01T23:56:08;98576.00;;;11.38;58.02
